Latest Weather Observations for Julia Creek

IDQ60801

Issued at 7:12 am EST Tuesday 25 September 2018 (issued every 10 minutes, with the page automatically refreshed every 10 minutes)

About weather observations | Map of weather stations | Latest weather observations for QLD | Other Formats
Station Details ID: 029058 Name: JULIA CREEK AIRPORT Lat: -20.67 Lon: 141.72 Height: 122.5 m
Data from the previous 72 hours. | See also: Recent months at Julia Creek
Date/Time
EST
Temp
°C
App
Temp
°C
Dew
Point
°C
Rel
Hum
%
Delta-T
°C
Wind Press
QNH
hPa
Press
MSL
hPa
Rain since
9am
mm
Dir  Spd
km/h
Gust
km/h
Spd
kts
Gust
kts
25/07:00am 16.6 13.2 -0.6 31 7.3 SSW 7 9 4 5 1017.2 1016.6 0.0
25/06:30am 15.7 11.1 -0.9 32 7.0 SSW 13 15 7 8 1016.8 1016.2 0.0
25/06:00am 15.8 11.2 -0.8 32 7.0 SSW 13 15 7 8 1016.4 1015.8 0.0
25/05:30am 15.7 12.2 -1.4 31 7.1 SSE 7 15 4 8 1015.8 1015.2 0.0
25/05:00am 17.3 13.5 -0.9 29 7.7 SE 9 13 5 7 1015.3 1014.7 0.0
25/04:30am 17.9 12.8 0.6 31 7.6 SSW 17 22 9 12 1015.0 1014.4 0.0
25/04:00am 16.7 12.6 -0.5 31 7.3 SSE 11 15 6 8 1014.7 1014.1 0.0
25/03:30am 18.2 14.1 -0.1 29 8.0 SE 11 17 6 9 1014.6 1014.0 0.0
25/03:00am 17.9 13.4 -0.4 29 7.9 E 13 15 7 8 1014.6 1014.0 0.0
25/02:30am 18.7 13.8 -0.2 28 8.3 ESE 15 17 8 9 1014.7 1014.1 0.0
25/02:00am 19.1 14.7 0.2 28 8.4 SE 13 17 7 9 1014.8 1014.2 0.0
25/01:30am 19.1 14.2 -0.3 27 8.5 ESE 15 17 8 9 1015.1 1014.5 0.0
25/01:00am 18.9 13.9 -1.0 26 8.6 ESE 15 17 8 9 1015.4 1014.8 0.0
25/12:30am 19.5 14.5 -1.0 25 8.9 ESE 15 15 8 8 1015.5 1014.9 0.0
25/12:00am 19.8 15.2 -1.3 24 9.1 ESE 13 15 7 8 1015.7 1015.1 0.0
 
Date/Time
EST
Temp
°C
App
Temp
°C
Dew
Point
°C
Rel
Hum
%
Delta-T
°C
Wind Press
QNH
hPa
Press
MSL
hPa
Rain since
9am
mm
Dir  Spd
km/h
Gust
km/h
Spd
kts
Gust
kts
24/11:30pm 21.2 16.3 -0.7 23 9.7 E 15 17 8 9 1015.8 1015.2 0.0
24/11:00pm 22.9 18.1 0.1 22 10.4 SE 15 19 8 10 1015.8 1015.2 0.0
24/10:30pm 23.8 18.6 0.2 21 10.9 SE 17 19 9 10 1015.7 1015.1 0.0
24/10:00pm 24.4 19.3 0.7 21 11.0 SSE 17 20 9 11 1015.7 1015.1 0.0
24/09:30pm 24.7 19.2 0.3 20 11.3 SSE 19 20 10 11 1015.6 1015.0 0.0
24/09:00pm 24.9 19.7 0.4 20 11.4 SSE 17 20 9 11 1015.4 1014.8 0.0
24/08:30pm 25.8 20.3 0.5 19 11.9 SSE 19 20 10 11 1015.2 1014.6 0.0
24/08:00pm 25.8 20.7 0.5 19 11.9 SSE 17 19 9 10 1014.9 1014.3 0.0
24/07:30pm 26.1 20.9 0.0 18 12.2 SSE 17 19 9 10 1014.5 1013.9 0.0
24/07:00pm 28.0 23.3 0.7 17 13.1 SSE 15 17 8 9 1014.2 1013.6 0.0
24/06:30pm 30.3 24.8 0.8 15 14.4 SSE 19 24 10 13 1013.7 1013.2 0.0
24/06:00pm 31.8 26.2 1.0 14 15.2 SSE 20 28 11 15 1013.5 1013.0 0.0
24/05:30pm 32.6 25.8 0.6 13 15.8 SE 26 39 14 21 1013.3 1012.8 0.0
24/05:00pm 33.4 27.8 0.1 12 16.4 SE 19 28 10 15 1013.1 1012.6 0.0
24/04:30pm 33.3 28.3 1.2 13 16.1 SSE 17 33 9 18 1013.0 1012.5 0.0
24/04:00pm 32.9 27.3 -0.2 12 16.2 SSE 19 35 10 19 1013.1 1012.6 0.0
24/03:30pm 33.6 29.4 1.4 13 16.2 S 13 24 7 13 1013.3 1012.8 0.0
24/03:00pm 32.9 28.2 0.9 13 15.9 SE 15 28 8 15 1013.7 1013.2 0.0
24/02:32pm 33.4 27.1 1.3 13 16.1 SE 24 46 13 25 1014.4 1013.8 0.0
24/02:30pm 33.2 27.7 2.1 14 15.8 SE 20 46 11 25 1014.4 1013.8 0.0
24/02:00pm 33.3 27.5 2.2 14 15.8 ESE 22 37 12 20 1014.9 1014.3 0.0
24/01:30pm 33.0 27.7 2.9 15 15.5 SE 20 35 11 19 1015.5 1014.9 0.0
24/01:00pm 33.2 27.9 3.1 15 15.5 SE 20 33 11 18 1016.2 1015.6 0.0
24/12:30pm 32.0 26.5 3.9 17 14.6 ESE 22 39 12 21 1016.9 1016.3 0.0
24/12:00pm 31.6 26.6 4.4 18 14.2 ESE 20 30 11 16 1017.5 1016.9 0.0
24/11:30am 30.7 26.2 4.4 19 13.7 ESE 17 28 9 15 1018.3 1017.8 0.0
24/11:00am 30.0 26.8 5.3 21 13.0 ESE 11 19 6 10 1018.8 1018.3 0.0
24/10:30am 29.0 26.5 6.4 24 12.0 NNE 9 19 5 10 1019.2 1018.7 0.0
24/10:00am 28.3 25.3 7.5 27 11.2 NE 13 19 7 10 1019.5 1019.0 0.0
24/09:30am 26.8 23.1 7.8 30 10.2 NNE 17 20 9 11 1019.4 1018.9 0.0
24/09:00am 26.0 21.9 8.0 32 9.7 NE 19 24 10 13 1019.4 1018.9 0.0
24/08:30am 24.8 20.0 7.4 33 9.2 NNE 22 30 12 16 1019.2 1018.7 0.0
24/08:00am 21.7 17.8 3.4 30 8.8 ENE 13 19 7 10 1018.9 1018.4 0.0
24/07:30am 18.7 15.1 0.3 29 8.1 SE 9 11 5 6 1018.6 1018.1 0.0
24/07:00am 15.7 11.8 -1.4 31 7.1 SSE 9 11 5 6 1018.3 1017.8 0.0
24/06:30am 14.0 9.7 -2.0 33 6.4 SE 11 13 6 7 1017.9 1017.3 0.0
24/06:00am 14.0 10.0 -2.0 33 6.4 SE 9 13 5 7 1017.6 1017.0 0.0
24/05:30am 14.4 10.0 -2.1 32 6.7 SE 11 13 6 7 1017.3 1016.7 0.0
24/05:00am 15.3 11.4 -1.7 31 7.0 SE 9 11 5 6 1016.9 1016.3 0.0
24/04:30am 15.3 11.0 -1.7 31 7.0 SE 11 13 6 7 1016.7 1016.1 0.0
24/04:00am 15.9 11.2 -1.6 30 7.2 SE 13 15 7 8 1016.7 1016.1 0.0
24/03:30am 16.3 11.6 -1.7 29 7.5 SE 13 15 7 8 1016.7 1016.1 0.0
24/03:00am 16.5 11.8 -1.6 29 7.5 SE 13 15 7 8 1016.7 1016.1 0.0
24/02:30am 16.8 12.1 -1.8 28 7.7 ESE 13 15 7 8 1016.8 1016.2 0.0
24/02:00am 17.2 12.6 -1.4 28 7.8 ESE 13 15 7 8 1017.0 1016.4 0.0
24/01:30am 18.6 13.6 -1.3 26 8.5 ESE 15 17 8 9 1017.2 1016.6 0.0
24/01:00am 19.6 14.7 -0.4 26 8.8 ESE 15 19 8 10 1017.5 1016.9 0.0
24/12:30am 20.5 14.8 -0.7 24 9.3 SE 19 22 10 12 1017.6 1017.0 0.0
24/12:00am 21.0 15.2 -0.3 24 9.5 SE 20 24 11 13 1017.6 1017.0 0.0
 
Date/Time
EST
Temp
°C
App
Temp
°C
Dew
Point
°C
Rel
Hum
%
Delta-T
°C
Wind Press
QNH
hPa
Press
MSL
hPa
Rain since
9am
mm
Dir  Spd
km/h
Gust
km/h
Spd
kts
Gust
kts
23/11:30pm 20.8 15.1 -0.5 24 9.4 SE 19 22 10 12 1017.7 1017.1 0.0
23/11:00pm 21.0 15.3 -0.9 23 9.6 SE 19 20 10 11 1017.8 1017.2 0.0
23/10:30pm 21.4 15.6 -1.2 22 9.9 SE 19 20 10 11 1017.9 1017.3 0.0
23/10:00pm 21.9 16.2 -0.8 22 10.1 SSE 19 20 10 11 1017.9 1017.3 0.0
23/09:30pm 21.8 16.8 -1.5 21 10.2 SE 15 19 8 10 1017.7 1017.1 0.0
23/09:00pm 23.0 17.6 -1.1 20 10.7 SE 17 19 9 10 1017.4 1016.8 0.0
23/08:30pm 23.6 18.2 -1.3 19 11.1 SE 17 19 9 10 1017.2 1016.6 0.0
23/08:00pm 24.9 19.5 -1.0 18 11.7 SE 17 19 9 10 1016.9 1016.3 0.0
23/07:30pm 26.3 20.6 -0.7 17 12.5 SE 19 20 10 11 1016.5 1015.9 0.0
23/07:00pm 28.1 21.8 -0.9 15 13.5 SE 22 26 12 14 1016.2 1015.6 0.0
23/06:30pm 29.5 22.8 -0.8 14 14.3 SE 24 32 13 17 1015.9 1015.3 0.0
23/06:00pm 30.8 23.4 -0.8 13 15.0 SE 28 35 15 19 1015.5 1014.9 0.0
23/05:30pm 31.6 23.7 -1.2 12 15.6 SE 30 39 16 21 1015.3 1014.7 0.0
23/05:00pm 32.3 24.4 -1.9 11 16.1 SE 30 39 16 21 1015.2 1014.6 0.0
23/04:30pm 32.5 24.7 -0.5 12 16.0 ESE 30 41 16 22 1015.2 1014.6 0.0
23/04:00pm 33.3 25.6 0.1 12 16.3 SE 30 41 16 22 1015.5 1014.9 0.0
23/03:30pm 33.6 26.3 0.3 12 16.5 SE 28 37 15 20 1015.7 1015.1 0.0
23/03:00pm 33.3 25.1 0.1 12 16.3 ESE 33 52 18 28 1016.2 1015.6 0.0
23/02:44pm 32.0 24.7 0.2 13 15.5 SE 28 46 15 25 1016.4 1015.8 0.0
23/02:30pm 33.1 26.2 -0.1 12 16.3 ESE 26 39 14 21 1016.6 1016.0 0.0
23/02:01pm 32.6 25.2 1.7 14 15.5 ESE 30 50 16 27 1016.8 1016.2 0.0
23/02:00pm 31.8 24.6 1.0 14 15.2 ESE 28 43 15 23 1017.0 1016.4 0.0
23/01:30pm 31.4 25.3 2.6 16 14.6 ESE 24 43 13 23 1017.4 1016.8 0.0
23/01:00pm 31.1 25.1 3.2 17 14.2 ESE 24 37 13 20 1018.0 1017.4 0.0
23/12:30pm 30.8 24.3 4.5 19 13.7 E 28 43 15 23 1018.9 1018.4 0.0
23/12:00pm 31.2 23.9 2.4 16 14.5 ESE 30 44 16 24 1019.5 1019.0 0.0
23/11:30am 30.0 23.8 6.0 22 12.8 ESE 28 43 15 23 1020.2 1019.7 0.0
23/11:00am 28.8 24.3 8.5 28 11.2 E 22 33 12 18 1020.7 1020.2 0.0
23/10:30am 28.0 23.2 8.8 30 10.6 E 24 33 13 18 1021.1 1020.6 0.0
23/10:00am 27.0 22.2 8.9 32 9.9 E 24 37 13 20 1021.2 1020.7 0.0
23/09:30am 26.5 21.8 9.4 34 9.5 ENE 24 33 13 18 1021.3 1020.8 0.0
23/09:00am 25.9 22.1 9.7 36 8.9 ENE 20 30 11 16 1021.3 1020.8 0.0
23/08:30am 24.7 21.0 9.4 38 8.4 E 19 28 10 15 1021.0 1020.5 0.0
23/08:00am 23.0 18.8 7.5 37 8.1 E 19 26 10 14 1020.7 1020.2 0.0
23/07:30am 20.8 16.0 4.8 35 7.9 E 19 26 10 14 1020.4 1019.9 0.0
23/07:00am 17.4 12.8 1.4 34 7.1 ESE 15 19 8 10 1020.2 1019.7 0.0
23/06:30am 16.5 12.2 1.0 35 6.8 ESE 13 15 7 8 1019.7 1019.2 0.0
23/06:00am 17.4 12.4 1.4 34 7.1 SE 17 20 9 11 1019.3 1018.8 0.0
23/05:30am 18.1 12.8 1.6 33 7.5 SE 19 22 10 12 1018.9 1018.4 0.0
23/05:00am 18.4 13.5 1.9 33 7.5 SE 17 20 9 11 1018.7 1018.2 0.0
23/04:30am 19.2 13.9 2.1 32 7.9 SE 19 22 10 12 1018.5 1018.0 0.0
23/04:00am 19.8 14.4 2.6 32 8.0 SE 20 24 11 13 1018.3 1017.8 0.0
23/03:30am 20.6 15.3 2.9 31 8.4 SE 20 24 11 13 1018.0 1017.4 0.0
23/03:00am 21.2 15.5 3.0 30 8.6 SE 22 28 12 15 1018.1 1017.6 0.0
23/02:30am 21.7 15.6 2.9 29 9.0 SE 24 30 13 16 1018.2 1017.7 0.0
23/02:00am 21.9 15.9 3.1 29 9.0 SE 24 30 13 16 1018.5 1018.0 0.0
23/01:30am 22.1 16.0 2.8 28 9.2 SE 24 30 13 16 1018.8 1018.3 0.0
23/01:00am 22.3 16.1 2.4 27 9.4 SE 24 30 13 16 1019.2 1018.7 0.0
23/12:30am 22.6 16.0 2.1 26 9.7 SSE 26 32 14 17 1019.3 1018.8 0.0
23/12:00am 22.9 16.2 1.3 24 10.1 SSE 26 32 14 17 1019.4 1018.9 0.0
 
Date/Time
EST
Temp
°C
App
Temp
°C
Dew
Point
°C
Rel
Hum
%
Delta-T
°C
Wind Press
QNH
hPa
Press
MSL
hPa
Rain since
9am
mm
Dir  Spd
km/h
Gust
km/h
Spd
kts
Gust
kts
22/11:30pm 23.1 16.7 0.9 23 10.3 SSE 24 32 13 17 1019.4 1018.9 0.0
22/11:00pm 23.5 16.6 -0.1 21 10.7 SSE 26 32 14 17 1019.3 1018.8 0.0
22/10:30pm 23.6 16.5 -1.3 19 11.1 SSE 26 32 14 17 1019.2 1018.7 0.0
22/10:00pm 23.7 16.5 -2.0 18 11.3 SSE 26 32 14 17 1019.1 1018.6 0.0
22/09:30pm 23.4 17.2 -3.0 17 11.4 SSE 20 24 11 13 1019.0 1018.5 0.0
22/09:00pm 23.9 18.0 -2.6 17 11.5 SSE 19 22 10 12 1018.7 1018.2 0.0
22/08:30pm 24.5 18.5 -2.9 16 12.0 SSE 19 20 10 11 1018.6 1018.1 0.0
22/08:00pm 25.7 19.6 -3.8 14 12.8 SSE 19 22 10 12 1018.2 1017.7 0.0
22/07:30pm 26.7 20.7 -3.0 14 13.2 SSE 19 22 10 12 1017.7 1017.1 0.0
22/07:00pm 27.9 21.8 -4.1 12 14.0 SSE 19 22 10 12 1017.3 1016.7 0.0
22/06:30pm 29.9 22.5 -3.7 11 15.1 SE 26 33 14 18 1016.9 1016.3 0.0
22/06:00pm 31.2 23.5 -2.7 11 15.7 SSE 28 35 15 19 1016.4 1015.8 0.0
22/05:30pm 32.0 24.6 -3.4 10 16.3 SE 26 37 14 20 1016.2 1015.6 0.0
22/05:00pm 33.0 26.1 -2.6 10 16.7 SSE 24 37 13 20 1016.0 1015.4 0.0
22/04:30pm 33.3 26.4 -2.4 10 16.8 SE 24 35 13 19 1015.8 1015.2 0.0
22/04:00pm 33.8 26.8 -3.5 9 17.3 SSE 24 41 13 22 1015.9 1015.3 0.0
22/03:30pm 33.5 28.7 0.2 12 16.4 SE 15 28 8 15 1016.1 1015.5 0.0
22/03:16pm 33.2 26.3 0.0 12 16.3 SSE 26 37 14 20 1016.2 1015.6 0.0
22/03:00pm 33.0 29.1 0.9 13 15.9 SSE 11 17 6 9 1016.3 1015.7 0.0
22/02:30pm 33.2 27.6 1.1 13 16.0 SE 20 35 11 19 1016.7 1016.1 0.0
22/02:00pm 32.6 27.2 2.6 15 15.3 SSE 20 35 11 19 1017.3 1016.7 0.0
22/01:30pm 33.5 29.2 3.3 15 15.7 SSE 15 24 8 13 1017.8 1017.2 0.0
22/01:00pm 32.0 27.1 3.9 17 14.6 SE 19 30 10 16 1018.5 1018.0 0.0
22/12:30pm 31.9 26.9 3.8 17 14.6 E 19 30 10 16 1018.9 1018.4 0.0
22/12:00pm 31.2 27.0 5.6 20 13.6 ESE 17 26 9 14 1019.6 1019.1 0.0
22/11:30am 30.6 27.0 8.3 25 12.4 ESE 17 24 9 13 1020.0 1019.5 0.0
22/11:00am 29.4 25.8 8.5 27 11.5 E 17 26 9 14 1020.5 1020.0 0.0
22/10:30am 28.5 24.7 9.2 30 10.7 E 19 28 10 15 1020.9 1020.4 0.0
22/10:00am 27.5 23.0 8.4 30 10.4 E 22 30 12 16 1021.1 1020.6 0.0
22/09:30am 26.4 21.4 6.4 28 10.5 E 22 28 12 15 1021.1 1020.6 0.0
22/09:00am 25.0 19.2 4.2 26 10.4 E 24 30 13 16 1020.9 1020.4 0.0
22/08:30am 23.1 15.6 -1.1 20 10.8 ESE 28 32 15 17 1020.9 1020.4 0.0
22/08:00am 20.7 13.1 -6.0 16 10.6 ESE 26 32 14 17 1020.6 1020.1 0.0
22/07:30am 18.5 11.3 -9.5 14 10.1 SE 22 33 12 18 1020.2 1019.7 0.0

Other Formats:

Comma delimited format used in spreadsheet applications
http://www.bom.gov.au/fwo/IDQ60801/IDQ60801.94337.axf

JavaScript Object Notation format (JSON) in row-major order
http://www.bom.gov.au/fwo/IDQ60801/IDQ60801.94337.json